»·PEaware :: N7697G L88-KSBP

N7697G :: L88-KSBP

FLIGHT INFORMATION

Flight Status: Arrived
Operator: Privately registered:
United States
More flights under this callsign
Pilot: Carlos P. (20373)
Aircraft: CESSNA 172 SKYHAWK
(C172)
More flights by this aircraft type
Origin: L88 New Cuyama
United States
Destination: KSBP San Luis Co Regl
United States
More flights between these airports :: More routes between these airports
Route: DIRECT
File this flight plan on PilotEdge
Remarks:
Altitude:
(Current/Filed)
7,500ft
Speed:
(Current/Filed)
110kts
Departed: 09-Sep-18 09:12 AM
Arrived: 09-Sep-18 09:49 AM
Distance/Time
Traveled:
50nm/0:37
Distance/Time
To Go:
Arrived

Flight Plot

Page will automatically refresh every two minutes.


Map Options




Map Legend


Flown Route
Filed Route
Departure Airport
Arrival Airport
Navaid (VOR, NDB)
Fix

Horizontal Profiles

Position Reports

Time Latitude Longitude Heading Altitude Ground
Speed
09-Sep-18 08:59 34.942855 -119.690286 204 2207ft 0kts
09-Sep-18 09:00 34.942855 -119.690286 204 2207ft 0kts
09-Sep-18 09:01 34.942855 -119.690286 204 2207ft 0kts
09-Sep-18 09:02 34.942855 -119.690286 204 2207ft 0kts
09-Sep-18 09:03 34.942855 -119.690286 204 2207ft 0kts
09-Sep-18 09:04 34.942855 -119.690286 204 2207ft 0kts
09-Sep-18 09:05 34.942855 -119.690286 204 2207ft 0kts
09-Sep-18 09:06 34.942854 -119.690286 204 2207ft 0kts
09-Sep-18 09:07 34.942855 -119.690286 204 2207ft 0kts
09-Sep-18 09:08 34.942855 -119.690286 204 2207ft 0kts
09-Sep-18 09:09 34.942855 -119.690286 204 2207ft 0kts
09-Sep-18 09:10 34.942895 -119.690913 276 2207ft 6kts
09-Sep-18 09:11 34.942616 -119.691229 185 2207ft 0kts
09-Sep-18 09:12 34.940574 -119.687124 118 2207ft 34kts
09-Sep-18 09:13 34.937697 -119.680026 307 2207ft 1kts
09-Sep-18 09:14 34.943864 -119.694261 290 2702ft 66kts
09-Sep-18 09:15 34.949924 -119.715760 289 3589ft 68kts
09-Sep-18 09:16 34.956297 -119.737204 315 4430ft 69kts
09-Sep-18 09:17 34.966824 -119.756611 301 5186ft 72kts
09-Sep-18 09:18 34.971754 -119.779525 275 5949ft 71kts
09-Sep-18 09:19 34.978197 -119.802193 277 6647ft 73kts
09-Sep-18 09:20 34.984635 -119.825369 304 7314ft 73kts
09-Sep-18 09:21 34.999365 -119.848867 305 7535ft 104kts
09-Sep-18 09:22 35.007537 -119.877598 284 7653ft 79kts
09-Sep-18 09:23 35.019387 -119.897766 314 7160ft 76kts
09-Sep-18 09:24 35.026273 -119.917163 289 6974ft 76kts
09-Sep-18 09:25 35.034642 -119.941656 287 7136ft 77kts
09-Sep-18 09:26 35.040941 -119.966990 288 7508ft 76kts
09-Sep-18 09:27 35.047366 -119.990636 293 7482ft 70kts
09-Sep-18 09:28 35.055182 -120.014161 289 7624ft 83kts
09-Sep-18 09:29 35.063026 -120.042190 287 7692ft 91kts
09-Sep-18 09:30 35.070840 -120.072325 286 7646ft 94kts
09-Sep-18 09:31 35.079611 -120.102552 291 7605ft 94kts
09-Sep-18 09:32 35.088389 -120.132863 289 7567ft 94kts
09-Sep-18 09:33 35.097385 -120.163052 289 7519ft 94kts
09-Sep-18 09:34 35.106123 -120.191960 289 7485ft 94kts
09-Sep-18 09:35 35.114852 -120.222228 290 7453ft 94kts
09-Sep-18 09:36 35.123343 -120.252569 290 7432ft 93kts
09-Sep-18 09:37 35.131246 -120.282162 286 7493ft 91kts
09-Sep-18 09:38 35.139988 -120.311373 290 7541ft 91kts
09-Sep-18 09:39 35.148438 -120.340562 292 7584ft 91kts
09-Sep-18 09:40 35.157625 -120.369736 291 7607ft 92kts
09-Sep-18 09:41 35.167058 -120.398197 290 7036ft 98kts
09-Sep-18 09:42 35.176109 -120.428474 289 6419ft 96kts
09-Sep-18 09:43 35.184417 -120.459110 289 5802ft 96kts
09-Sep-18 09:44 35.191952 -120.489704 289 5037ft 95kts
09-Sep-18 09:45 35.195468 -120.521501 271 4115ft 95kts
09-Sep-18 09:46 35.194265 -120.552675 276 3180ft 94kts
09-Sep-18 09:47 35.203334 -120.580350 303 2165ft 91kts
09-Sep-18 09:48 35.215753 -120.602396 304 1281ft 73kts
09-Sep-18 09:49 35.225056 -120.619215 306 737ft 56kts
09-Sep-18 09:50 35.232473 -120.632427 304 289ft 48kts
09-Sep-18 09:51 35.237524 -120.639912 3 215ft 0kts
09-Sep-18 09:52 35.237524 -120.639912 3 215ft 0kts
09-Sep-18 09:53 35.237653 -120.639904 1 215ft 7kts
09-Sep-18 09:54 35.238809 -120.639283 179 215ft 0kts
09-Sep-18 09:55 35.238809 -120.639283 179 215ft 0kts
09-Sep-18 09:56 35.238809 -120.639283 179 215ft 0kts
09-Sep-18 09:57 35.238809 -120.639283 179 215ft 0kts
09-Sep-18 09:58 35.238809 -120.639283 179 215ft 0kts
09-Sep-18 09:59 35.238809 -120.639283 179 215ft 0kts
09-Sep-18 10:00 35.238809 -120.639283 179 215ft 0kts
09-Sep-18 10:01 35.238809 -120.639283 179 215ft 0kts
09-Sep-18 10:02 35.238809 -120.639283 179 215ft 0kts
09-Sep-18 10:03 35.238809 -120.639283 179 215ft 0kts
09-Sep-18 10:04 35.238809 -120.639283 179 215ft 0kts
09-Sep-18 10:05 35.238809 -120.639283 179 215ft 0kts

Navigation Log

Ident Type
1. L88 Airport
2. KSBP Airport